createdAt,value
2022-08-09T00:00:33.571Z,18.99
2022-08-09T00:01:48.312Z,18.97
2022-08-09T00:02:34.934Z,18.96
2022-08-09T00:04:00.351Z,18.96
2022-08-09T00:04:36.634Z,18.94
2022-08-09T00:06:17.602Z,18.92
2022-08-09T00:06:36.185Z,18.91
2022-08-09T00:07:44.798Z,18.90
2022-08-09T00:08:34.495Z,18.91
2022-08-09T00:09:33.664Z,18.89
2022-08-09T00:10:34.156Z,18.88
2022-08-09T00:12:02.926Z,18.87
2022-08-09T00:12:34.829Z,18.85
2022-08-09T00:13:33.465Z,18.84
2022-08-09T00:14:38.227Z,18.83
2022-08-09T00:15:57.665Z,18.81
2022-08-09T00:16:38.321Z,18.80
2022-08-09T00:18:05.585Z,18.79
2022-08-09T00:18:35.558Z,18.77
2022-08-09T00:19:34.130Z,18.76
2022-08-09T00:20:34.134Z,18.74
2022-08-09T00:21:33.327Z,18.74
2022-08-09T00:22:35.281Z,18.71
2022-08-09T00:23:57.173Z,18.70
2022-08-09T00:24:34.399Z,18.68
2022-08-09T00:25:33.967Z,18.66
2022-08-09T00:26:33.397Z,18.65
2022-08-09T00:27:36.226Z,18.64
2022-08-09T00:28:35.072Z,18.64
2022-08-09T00:30:16.314Z,18.62
2022-08-09T00:30:34.230Z,18.62
2022-08-09T00:31:59.764Z,18.61
2022-08-09T00:32:35.851Z,18.60
2022-08-09T00:33:49.123Z,18.59
2022-08-09T00:34:34.270Z,18.58
2022-08-09T00:35:43.127Z,18.57
2022-08-09T00:36:34.179Z,18.57
2022-08-09T00:37:33.833Z,18.55
2022-08-09T00:38:33.172Z,18.55
2022-08-09T00:40:09.534Z,18.55
2022-08-09T00:40:36.148Z,18.53
2022-08-09T00:44:10.359Z,18.53
2022-08-09T00:44:24.605Z,18.52
2022-08-09T00:44:25.070Z,18.52
2022-08-09T00:44:37.499Z,18.51
2022-08-09T00:45:34.907Z,18.51
2022-08-09T00:46:55.809Z,18.50
2022-08-09T00:47:39.605Z,18.49
2022-08-09T00:48:34.045Z,18.48
2022-08-09T00:49:33.076Z,18.48
2022-08-09T00:50:33.694Z,18.46
2022-08-09T00:51:34.088Z,18.46
2022-08-09T00:52:34.948Z,18.44
2022-08-09T00:53:33.667Z,18.44
2022-08-09T00:54:36.028Z,18.43
2022-08-09T00:56:03.686Z,18.42
2022-08-09T00:56:35.917Z,18.41
2022-08-09T00:57:35.341Z,18.40
2022-08-09T00:58:33.007Z,18.40
2022-08-09T00:59:41.022Z,18.38
2022-08-09T01:00:36.348Z,18.37
2022-08-09T01:01:44.634Z,18.36
2022-08-09T01:02:35.850Z,18.35
2022-08-09T01:03:33.550Z,18.34
2022-08-09T01:04:34.539Z,18.34
2022-08-09T01:05:46.483Z,18.33
2022-08-09T01:06:54.419Z,18.32
2022-08-09T01:07:37.802Z,18.32
2022-08-09T01:08:33.829Z,18.32
2022-08-09T01:09:36.878Z,18.31
2022-08-09T01:10:33.832Z,18.30
2022-08-09T01:11:32.800Z,18.29
2022-08-09T01:12:33.048Z,18.28
2022-08-09T01:13:53.433Z,18.28
2022-08-09T01:14:35.692Z,18.27
2022-08-09T01:15:33.682Z,18.26
2022-08-09T01:16:35.099Z,18.25
2022-08-09T01:17:34.425Z,18.24
2022-08-09T01:18:32.738Z,18.24
2022-08-09T01:19:40.105Z,18.22
2022-08-09T01:20:35.649Z,18.22
2022-08-09T01:21:41.339Z,18.22
2022-08-09T01:22:34.091Z,18.21
2022-08-09T01:24:02.873Z,18.21
2022-08-09T01:24:33.645Z,18.20
2022-08-09T01:25:33.326Z,18.20
2022-08-09T01:26:35.567Z,18.19
2022-08-09T01:27:32.655Z,18.20
2022-08-09T01:28:35.097Z,18.19
2022-08-09T01:29:41.025Z,18.18
2022-08-09T01:30:35.782Z,18.18
2022-08-09T01:32:32.141Z,18.17
2022-08-09T01:32:38.649Z,18.17
2022-08-09T01:33:34.237Z,18.16
2022-08-09T01:34:32.570Z,18.16
2022-08-09T01:35:38.363Z,18.15
2022-08-09T01:36:33.913Z,18.15
2022-08-09T01:38:05.871Z,18.15
2022-08-09T01:38:35.500Z,18.13
2022-08-09T01:39:32.639Z,18.12
2022-08-09T01:40:33.149Z,18.10
2022-08-09T01:41:32.471Z,18.10
2022-08-09T01:42:34.454Z,18.09
2022-08-09T01:43:51.089Z,18.08
2022-08-09T01:44:35.910Z,18.07
2022-08-09T01:45:32.405Z,18.06
2022-08-09T01:46:32.564Z,18.05
2022-08-09T01:47:33.082Z,18.04
2022-08-09T01:48:34.071Z,18.04
2022-08-09T01:49:39.217Z,18.03
2022-08-09T01:50:37.038Z,18.02
2022-08-09T01:51:33.505Z,18.01
2022-08-09T01:52:32.596Z,18.00
2022-08-09T01:53:41.405Z,17.99
2022-08-09T01:54:33.428Z,17.98
2022-08-09T01:55:32.294Z,17.98
2022-08-09T01:56:33.075Z,17.96
2022-08-09T01:57:40.234Z,17.96
2022-08-09T01:58:35.260Z,17.96
2022-08-09T01:59:32.718Z,17.95
2022-08-09T02:00:35.856Z,17.94
2022-08-09T02:01:59.142Z,17.93
2022-08-09T02:02:34.479Z,17.92
2022-08-09T02:03:32.224Z,17.91
2022-08-09T02:04:32.236Z,17.91
2022-08-09T02:05:35.539Z,17.90
2022-08-09T02:06:33.638Z,17.89
2022-08-09T02:08:40.184Z,17.88
2022-08-09T02:08:40.561Z,17.89
2022-08-09T02:09:42.236Z,17.87
2022-08-09T02:10:33.827Z,17.85
2022-08-09T02:11:41.959Z,17.84
2022-08-09T02:12:34.026Z,17.83
2022-08-09T02:13:37.567Z,17.82
2022-08-09T02:14:33.129Z,17.81
2022-08-09T02:15:48.864Z,17.81
2022-08-09T02:16:53.146Z,17.79
2022-08-09T02:18:00.890Z,17.78
2022-08-09T02:18:33.079Z,17.76
2022-08-09T02:19:34.901Z,17.75
2022-08-09T02:20:34.072Z,17.73
2022-08-09T02:21:34.208Z,17.72
2022-08-09T02:22:35.838Z,17.71
2022-08-09T02:23:40.086Z,17.69
2022-08-09T02:24:32.991Z,17.68
2022-08-09T02:25:31.981Z,17.67
2022-08-09T02:26:35.025Z,17.66
2022-08-09T02:27:57.471Z,17.65
2022-08-09T02:28:34.887Z,17.64
2022-08-09T02:29:32.718Z,17.63
2022-08-09T02:30:31.917Z,17.62
2022-08-09T02:31:34.186Z,17.62
2022-08-09T02:32:32.082Z,17.60
2022-08-09T02:33:58.289Z,17.59
2022-08-09T02:34:41.444Z,17.58
2022-08-09T02:36:01.271Z,17.56
2022-08-09T02:36:34.285Z,17.54
2022-08-09T02:37:36.557Z,17.52
2022-08-09T02:38:35.426Z,17.50
2022-08-09T02:39:33.433Z,17.48
2022-08-09T02:40:31.857Z,17.45
2022-08-09T02:41:32.494Z,17.43
2022-08-09T02:42:31.989Z,17.40
2022-08-09T02:43:31.775Z,17.38
2022-08-09T02:44:35.129Z,17.35
2022-08-09T02:45:32.846Z,17.34
2022-08-09T02:46:32.439Z,17.31
2022-08-09T02:47:33.736Z,17.29
2022-08-09T02:48:33.441Z,17.27
2022-08-09T02:49:38.677Z,17.25
2022-08-09T02:50:34.670Z,17.24
2022-08-09T02:51:36.949Z,17.22
2022-08-09T02:52:35.241Z,17.21
2022-08-09T02:53:32.602Z,17.20
2022-08-09T02:54:31.670Z,17.18
2022-08-09T02:55:46.835Z,17.17
2022-08-09T02:56:33.340Z,17.15
2022-08-09T02:57:31.641Z,17.13
2022-08-09T02:58:37.461Z,17.13
2022-08-09T02:59:36.405Z,17.12
2022-08-09T03:00:32.938Z,17.11
2022-08-09T03:01:42.844Z,17.10
2022-08-09T03:02:36.189Z,17.09
2022-08-09T03:04:12.427Z,17.07
2022-08-09T03:04:32.592Z,17.07
2022-08-09T03:05:34.387Z,17.05
2022-08-09T03:06:32.211Z,17.03
2022-08-09T03:07:33.085Z,17.03
2022-08-09T03:08:31.570Z,17.03
2022-08-09T03:09:33.763Z,17.01
2022-08-09T03:10:31.645Z,17.00
2022-08-09T03:12:05.519Z,16.98
2022-08-09T03:12:32.650Z,16.97
2022-08-09T03:13:43.966Z,16.96
2022-08-09T03:14:33.396Z,16.96
2022-08-09T03:16:04.728Z,16.95
2022-08-09T03:16:34.273Z,16.94
2022-08-09T03:17:31.427Z,16.94
2022-08-09T03:18:31.641Z,16.92
2022-08-09T03:19:58.470Z,16.92
2022-08-09T03:20:33.345Z,16.91
2022-08-09T03:21:36.628Z,16.90
2022-08-09T03:22:32.526Z,16.90
2022-08-09T03:23:32.034Z,16.89
2022-08-09T03:24:50.944Z,16.88
2022-08-09T03:25:58.062Z,16.87
2022-08-09T03:26:33.271Z,16.87
2022-08-09T03:27:31.300Z,16.87
2022-08-09T03:28:33.199Z,16.85
2022-08-09T03:29:35.747Z,16.84
2022-08-09T03:30:33.628Z,16.83
2022-08-09T03:31:31.949Z,16.82
2022-08-09T03:32:32.640Z,16.81
2022-08-09T03:33:54.545Z,16.81
2022-08-09T03:34:33.150Z,16.80
2022-08-09T03:35:44.355Z,16.79
2022-08-09T03:36:33.002Z,16.79
2022-08-09T03:37:55.857Z,16.78
2022-08-09T03:38:32.260Z,16.77
2022-08-09T03:39:38.126Z,16.77
2022-08-09T03:40:32.869Z,16.76
2022-08-09T03:41:45.880Z,16.76
2022-08-09T03:42:33.126Z,16.75
2022-08-09T03:43:33.100Z,16.75
2022-08-09T03:44:32.082Z,16.74
2022-08-09T03:46:03.116Z,16.73
2022-08-09T03:46:34.532Z,16.72
2022-08-09T03:47:31.123Z,16.72
2022-08-09T03:48:32.112Z,16.71
2022-08-09T03:49:35.668Z,16.70
2022-08-09T03:50:31.889Z,16.69
2022-08-09T03:51:55.509Z,16.69
2022-08-09T03:52:33.311Z,16.69
2022-08-09T03:53:32.234Z,16.68
2022-08-09T03:54:32.289Z,16.68
2022-08-09T03:55:36.175Z,16.67
2022-08-09T03:56:32.107Z,16.67
2022-08-09T03:57:30.995Z,16.67
2022-08-09T03:58:31.026Z,16.66
2022-08-09T03:59:43.029Z,16.66
2022-08-09T04:00:32.950Z,16.66
2022-08-09T04:01:30.947Z,16.66
2022-08-09T04:02:31.129Z,16.67
2022-08-09T04:03:35.433Z,16.67
2022-08-09T04:04:32.554Z,16.67
2022-08-09T04:05:32.817Z,16.67
2022-08-09T04:06:33.827Z,16.66
2022-08-09T04:07:47.925Z,16.66
2022-08-09T04:08:33.429Z,16.66
2022-08-09T04:09:47.488Z,16.67
2022-08-09T04:10:31.839Z,16.66
2022-08-09T04:11:31.528Z,16.66
2022-08-09T04:12:31.634Z,16.68
2022-08-09T04:14:36.708Z,16.67
2022-08-09T04:14:37.024Z,16.68
2022-08-09T04:16:18.870Z,16.68
2022-08-09T04:16:31.791Z,16.70
2022-08-09T04:17:32.714Z,16.69
2022-08-09T04:18:31.455Z,16.71
2022-08-09T04:19:42.722Z,16.72
2022-08-09T04:20:32.698Z,16.73
2022-08-09T04:21:31.416Z,16.74
2022-08-09T04:22:32.282Z,16.77
2022-08-09T04:23:31.393Z,16.78
2022-08-09T04:24:30.730Z,16.80
2022-08-09T04:25:31.382Z,16.83
2022-08-09T04:26:37.779Z,16.85
2022-08-09T04:27:32.780Z,16.87
2022-08-09T04:28:36.106Z,16.90
2022-08-09T04:29:32.332Z,16.92
2022-08-09T04:30:31.323Z,16.96
2022-08-09T04:31:37.514Z,16.98
2022-08-09T04:32:33.885Z,17.01
2022-08-09T04:33:31.615Z,17.03
2022-08-09T04:34:32.012Z,17.08
2022-08-09T04:35:32.816Z,17.11
2022-08-09T04:36:31.257Z,17.14
2022-08-09T04:37:46.055Z,17.18
2022-08-09T04:38:32.229Z,17.22
2022-08-09T04:39:31.490Z,17.25
2022-08-09T04:40:36.631Z,17.28
2022-08-09T04:41:32.955Z,17.32
2022-08-09T04:42:30.750Z,17.35
2022-08-09T04:43:31.188Z,17.39
2022-08-09T04:44:31.159Z,17.43
2022-08-09T04:45:36.100Z,17.47
2022-08-09T04:46:37.864Z,17.52
2022-08-09T04:47:59.289Z,17.57
2022-08-09T04:48:33.561Z,17.63
2022-08-09T04:49:53.513Z,17.67
2022-08-09T04:50:33.604Z,17.73
2022-08-09T04:51:31.091Z,17.77
2022-08-09T04:52:31.080Z,17.81
2022-08-09T04:53:31.326Z,17.86
2022-08-09T04:54:31.069Z,17.89
2022-08-09T04:55:38.337Z,17.93
2022-08-09T04:56:31.361Z,17.95
2022-08-09T04:57:58.814Z,17.97
2022-08-09T04:58:33.990Z,18.00
2022-08-09T04:59:31.012Z,18.02
2022-08-09T05:00:31.621Z,18.05
2022-08-09T05:01:32.619Z,18.08
2022-08-09T05:02:31.279Z,18.11
2022-08-09T05:03:42.788Z,18.14
2022-08-09T05:04:31.625Z,18.18
2022-08-09T05:05:32.171Z,18.21
2022-08-09T05:06:35.750Z,18.23
2022-08-09T05:07:32.057Z,18.27
2022-08-09T05:08:30.257Z,18.30
2022-08-09T05:09:42.160Z,18.36
2022-08-09T05:10:31.228Z,18.39
2022-08-09T05:11:30.623Z,18.44
2022-08-09T05:12:32.748Z,18.48
2022-08-09T05:13:33.118Z,18.51
2022-08-09T05:14:30.156Z,18.54
2022-08-09T05:15:38.756Z,18.57
2022-08-09T05:16:32.191Z,18.60
2022-08-09T05:18:38.288Z,18.63
2022-08-09T05:18:50.245Z,18.66
2022-08-09T05:19:46.008Z,18.69
2022-08-09T05:20:31.787Z,18.72
2022-08-09T05:21:46.650Z,18.76
2022-08-09T05:22:35.998Z,18.82
2022-08-09T05:23:54.379Z,18.86
2022-08-09T05:24:31.068Z,18.91
2022-08-09T05:25:32.558Z,18.95
2022-08-09T05:26:45.246Z,18.97
2022-08-09T05:27:31.031Z,19.00
2022-08-09T05:28:30.692Z,19.05
2022-08-09T05:29:31.388Z,19.10
2022-08-09T05:30:31.671Z,19.17
2022-08-09T05:31:44.338Z,19.24
2022-08-09T05:32:32.699Z,19.29
2022-08-09T05:33:32.806Z,19.37
2022-08-09T05:34:31.819Z,19.45
2022-08-09T05:35:30.614Z,19.55
2022-08-09T05:36:31.609Z,19.64
2022-08-09T05:37:30.295Z,19.70
2022-08-09T05:38:30.911Z,19.76
2022-08-09T05:39:36.176Z,19.86
2022-08-09T05:40:32.373Z,19.94
2022-08-09T05:41:29.885Z,20.06
2022-08-09T05:42:29.879Z,20.26
2022-08-09T05:43:32.016Z,20.45
2022-08-09T05:44:32.926Z,20.54
2022-08-09T05:45:52.601Z,20.65
2022-08-09T05:46:30.889Z,20.91
2022-08-09T05:47:30.195Z,20.98
2022-08-09T05:48:33.369Z,21.17
2022-08-09T05:50:16.776Z,21.57
2022-08-09T05:50:44.086Z,22.03
2022-08-09T05:51:42.707Z,22.45
2022-08-09T05:52:33.025Z,22.94
2022-08-09T05:53:32.051Z,23.48
2022-08-09T05:54:31.168Z,24.19
2022-08-09T05:55:31.369Z,24.88
2022-08-09T05:56:30.394Z,25.52
2022-08-09T05:57:51.219Z,26.10
2022-08-09T05:58:32.678Z,26.59
2022-08-09T05:59:29.677Z,27.03
2022-08-09T06:00:30.589Z,27.45
2022-08-09T06:01:34.029Z,27.84
2022-08-09T06:02:31.797Z,28.15
2022-08-09T06:03:34.749Z,28.45
2022-08-09T06:04:35.071Z,28.72
2022-08-09T06:05:30.706Z,29.00
2022-08-09T06:06:31.291Z,29.23
2022-08-09T06:07:29.651Z,29.42
2022-08-09T06:08:30.260Z,29.64
2022-08-09T06:09:54.675Z,29.87
2022-08-09T06:10:30.561Z,30.08
2022-08-09T06:11:40.781Z,30.29
2022-08-09T06:12:31.473Z,30.49
2022-08-09T06:13:33.883Z,30.68
2022-08-09T06:14:30.230Z,30.82
2022-08-09T06:15:29.544Z,30.99
2022-08-09T06:16:29.511Z,31.23
2022-08-09T06:17:39.824Z,31.44
2022-08-09T06:18:30.476Z,31.64
2022-08-09T06:19:30.138Z,31.89
2022-08-09T06:20:29.496Z,32.10
2022-08-09T06:21:30.126Z,32.27
2022-08-09T06:22:30.107Z,32.42
2022-08-09T06:23:55.434Z,32.52
2022-08-09T06:24:30.427Z,32.64
2022-08-09T06:25:30.090Z,32.81
2022-08-09T06:26:30.071Z,32.98
2022-08-09T06:27:43.173Z,33.12
2022-08-09T06:28:31.879Z,33.30
2022-08-09T06:29:29.362Z,33.52
2022-08-09T06:30:30.026Z,33.75
2022-08-09T06:31:31.041Z,33.95
2022-08-09T06:32:53.082Z,34.19
2022-08-09T06:33:40.684Z,34.44
2022-08-09T06:34:32.232Z,34.59
2022-08-09T06:35:35.773Z,34.75
2022-08-09T06:36:30.910Z,34.90
2022-08-09T06:37:29.951Z,35.01
2022-08-09T06:38:37.641Z,35.11
2022-08-09T06:39:57.890Z,35.23
2022-08-09T06:40:31.725Z,35.29
2022-08-09T06:42:01.248Z,35.32
2022-08-09T06:42:33.558Z,35.37
2022-08-09T06:43:34.352Z,35.43
2022-08-09T06:44:32.116Z,35.47
2022-08-09T06:46:06.470Z,35.56
2022-08-09T06:46:39.549Z,35.62
2022-08-09T06:47:39.838Z,35.65
2022-08-09T06:48:31.355Z,35.74
2022-08-09T06:50:11.433Z,35.90
2022-08-09T06:50:31.029Z,36.10
2022-08-09T06:51:30.962Z,36.36
2022-08-09T06:52:29.906Z,36.57
2022-08-09T06:53:38.074Z,36.65
2022-08-09T06:54:30.098Z,36.74
2022-08-09T06:55:29.080Z,36.85
2022-08-09T06:56:31.031Z,36.89
2022-08-09T06:58:01.854Z,36.96
2022-08-09T07:00:47.244Z,37.07
2022-08-09T07:00:50.574Z,37.33
2022-08-09T07:00:52.037Z,37.20
2022-08-09T07:01:53.710Z,37.41
2022-08-09T07:02:31.743Z,37.48
2022-08-09T07:03:29.679Z,37.62
2022-08-09T07:04:28.992Z,37.72
2022-08-09T07:05:58.406Z,37.75
2022-08-09T07:06:31.399Z,37.73
2022-08-09T07:07:59.749Z,37.68
2022-08-09T07:08:31.397Z,37.69
2022-08-09T07:09:55.305Z,37.72
2022-08-09T07:10:32.221Z,37.79
2022-08-09T07:11:45.393Z,37.91
2022-08-09T07:12:41.031Z,38.00
2022-08-09T07:14:04.458Z,38.14
2022-08-09T07:14:29.875Z,38.31
2022-08-09T07:16:36.164Z,38.48
2022-08-09T07:16:43.270Z,38.63
2022-08-09T07:17:39.837Z,38.79
2022-08-09T07:18:32.201Z,38.93
2022-08-09T07:19:28.841Z,39.01
2022-08-09T07:20:29.489Z,39.07
2022-08-09T07:21:30.850Z,39.12
2022-08-09T07:22:34.693Z,39.18
2022-08-09T07:23:29.790Z,39.25
2022-08-09T07:24:31.374Z,39.35
2022-08-09T07:25:29.063Z,39.56
2022-08-09T07:26:28.750Z,39.77
2022-08-09T07:27:33.814Z,39.91
2022-08-09T07:28:29.732Z,40.01
2022-08-09T07:29:35.568Z,40.14
2022-08-09T07:30:32.817Z,40.19
2022-08-09T07:31:28.703Z,40.19
2022-08-09T07:32:33.301Z,40.23
2022-08-09T07:33:30.936Z,40.30
2022-08-09T07:34:29.672Z,40.41
2022-08-09T07:35:29.347Z,40.50
2022-08-09T07:36:29.676Z,40.56
2022-08-09T07:37:28.636Z,40.56
2022-08-09T07:38:31.139Z,40.53
2022-08-09T07:39:41.300Z,40.51
2022-08-09T07:40:46.243Z,40.51
2022-08-09T07:41:33.178Z,40.50
2022-08-09T07:42:32.904Z,40.51
2022-08-09T07:43:29.264Z,40.54
2022-08-09T07:44:33.042Z,40.56
2022-08-09T07:45:37.974Z,40.58
2022-08-09T07:46:29.539Z,40.58
2022-08-09T07:47:29.219Z,40.60
2022-08-09T07:48:31.615Z,40.65
2022-08-09T07:49:28.522Z,40.80
2022-08-09T07:50:32.963Z,40.96
2022-08-09T07:52:05.215Z,41.10
2022-08-09T07:52:29.496Z,41.17
2022-08-09T07:54:01.632Z,41.20
2022-08-09T07:54:30.965Z,41.19
2022-08-09T07:55:28.658Z,41.19
2022-08-09T07:56:31.106Z,41.23
2022-08-09T07:57:33.808Z,41.29
2022-08-09T07:58:29.424Z,41.35
2022-08-09T07:59:34.811Z,41.42
2022-08-09T08:00:36.367Z,41.47
2022-08-09T08:01:33.156Z,41.50
2022-08-09T08:02:29.130Z,41.48
2022-08-09T08:03:29.056Z,41.46
2022-08-09T08:04:32.125Z,41.44
2022-08-09T08:05:29.034Z,41.42
2022-08-09T08:06:31.936Z,41.47
2022-08-09T08:08:43.361Z,41.53
2022-08-09T08:09:01.058Z,41.59
2022-08-09T08:09:35.563Z,41.66
2022-08-09T08:10:31.237Z,41.72
2022-08-09T08:12:11.321Z,41.79
2022-08-09T08:12:29.667Z,41.85
2022-08-09T08:13:38.221Z,41.91
2022-08-09T08:14:31.190Z,41.99
2022-08-09T08:15:28.921Z,42.07
2022-08-09T08:16:32.072Z,42.10
2022-08-09T08:17:52.155Z,42.12
2022-08-09T08:18:29.264Z,42.11
2022-08-09T08:19:31.257Z,42.02
2022-08-09T08:20:33.060Z,41.89
2022-08-09T08:21:28.181Z,41.72
2022-08-09T08:22:28.802Z,41.52
2022-08-09T08:23:28.163Z,41.31
2022-08-09T08:24:34.130Z,41.14
2022-08-09T08:25:40.019Z,41.03
2022-08-09T08:26:41.914Z,40.91
2022-08-09T08:27:29.117Z,40.81
2022-08-09T08:28:32.778Z,40.77
2022-08-09T08:29:39.580Z,40.73
2022-08-09T08:30:29.127Z,40.64
2022-08-09T08:31:56.578Z,40.56
2022-08-09T08:32:29.865Z,40.47
2022-08-09T08:33:28.741Z,40.35
2022-08-09T08:34:29.718Z,40.22
2022-08-09T08:35:52.873Z,40.07
2022-08-09T08:36:30.742Z,39.91
2022-08-09T08:37:41.386Z,39.75
2022-08-09T08:38:28.989Z,39.62
2022-08-09T08:39:28.810Z,39.53
2022-08-09T08:40:29.696Z,39.42
2022-08-09T08:41:50.767Z,39.32
2022-08-09T08:42:32.015Z,39.23
2022-08-09T08:43:28.641Z,39.12
2022-08-09T08:44:28.976Z,39.02
2022-08-09T08:45:37.697Z,38.89
2022-08-09T08:46:33.479Z,38.73
2022-08-09T08:47:29.925Z,38.58
2022-08-09T08:48:29.252Z,38.47
2022-08-09T08:49:38.830Z,38.36
2022-08-09T08:50:30.805Z,38.23
2022-08-09T08:51:41.524Z,38.10
2022-08-09T08:52:57.492Z,38.01
2022-08-09T08:53:32.261Z,37.90
2022-08-09T08:54:30.265Z,37.77
2022-08-09T08:55:28.497Z,37.65
2022-08-09T08:56:28.572Z,37.57
2022-08-09T08:57:27.800Z,37.48
2022-08-09T08:58:27.819Z,37.42
2022-08-09T08:59:47.061Z,37.33
2022-08-09T09:00:34.486Z,37.25
2022-08-09T09:01:44.771Z,37.19
2022-08-09T09:02:30.958Z,37.17
2022-08-09T09:03:37.084Z,37.10
2022-08-09T09:04:28.772Z,37.07
2022-08-09T09:05:59.203Z,37.04
2022-08-09T09:06:30.138Z,36.98
2022-08-09T09:07:27.682Z,36.87
2022-08-09T09:08:30.389Z,36.74
2022-08-09T09:09:58.443Z,36.62
2022-08-09T09:10:30.622Z,36.44
2022-08-09T09:11:28.563Z,36.28
2022-08-09T09:12:29.264Z,36.14
2022-08-09T09:13:42.214Z,36.06
2022-08-09T09:14:28.616Z,36.01
2022-08-09T09:15:28.995Z,36.02
2022-08-09T09:16:29.754Z,36.00
2022-08-09T09:17:48.307Z,35.93
2022-08-09T09:18:29.887Z,35.88
2022-08-09T09:19:40.775Z,35.80
2022-08-09T09:20:29.225Z,35.70
2022-08-09T09:21:27.592Z,35.60
2022-08-09T09:22:28.838Z,35.47
2022-08-09T09:23:37.625Z,35.37
2022-08-09T09:24:29.197Z,35.29
2022-08-09T09:26:01.987Z,35.23
2022-08-09T09:26:30.428Z,35.20
2022-08-09T09:28:06.739Z,35.16
2022-08-09T09:28:39.106Z,35.11
2022-08-09T09:29:45.686Z,35.02
2022-08-09T09:30:40.921Z,34.96
2022-08-09T09:32:06.722Z,34.95
2022-08-09T09:32:32.439Z,35.02
2022-08-09T09:33:28.462Z,35.14
2022-08-09T09:34:29.053Z,35.29
2022-08-09T09:35:28.083Z,35.43
2022-08-09T09:36:29.321Z,35.54
2022-08-09T09:37:27.375Z,35.59
2022-08-09T09:38:37.070Z,35.57
2022-08-09T09:39:55.379Z,35.55
2022-08-09T09:40:29.063Z,35.47
2022-08-09T09:41:33.137Z,35.43
2022-08-09T09:42:29.012Z,35.43
2022-08-09T09:43:29.223Z,35.42
2022-08-09T09:44:31.533Z,35.38
2022-08-09T09:45:29.493Z,35.30
2022-08-09T09:46:46.203Z,35.20
2022-08-09T09:47:28.519Z,35.21
2022-08-09T09:48:27.247Z,35.27
2022-08-09T09:49:50.215Z,35.37
2022-08-09T09:50:28.272Z,35.45
2022-08-09T09:51:38.657Z,35.55
2022-08-09T09:52:36.604Z,35.63
2022-08-09T09:53:44.002Z,35.66
2022-08-09T09:54:30.121Z,35.70
2022-08-09T09:55:32.110Z,35.74
2022-08-09T09:56:31.494Z,35.77
2022-08-09T09:58:03.517Z,35.83
2022-08-09T09:58:30.097Z,35.87
2022-08-09T09:59:35.167Z,35.95
2022-08-09T10:00:28.111Z,36.04
2022-08-09T10:01:31.461Z,36.09
2022-08-09T10:02:30.394Z,36.13
2022-08-09T10:03:27.810Z,36.18
2022-08-09T10:04:31.031Z,36.26
2022-08-09T10:06:03.564Z,36.31
2022-08-09T10:06:32.302Z,36.34
2022-08-09T10:07:27.733Z,36.35
2022-08-09T10:08:28.616Z,36.38
2022-08-09T10:09:27.713Z,36.44
2022-08-09T10:10:27.703Z,36.52
2022-08-09T10:11:58.953Z,36.63
2022-08-09T10:12:29.646Z,36.78
2022-08-09T10:13:45.187Z,36.99
2022-08-09T10:14:33.675Z,37.20
2022-08-09T10:16:09.164Z,37.46
2022-08-09T10:16:56.923Z,37.76
2022-08-09T10:17:51.489Z,38.01
2022-08-09T10:18:27.938Z,38.20
2022-08-09T10:19:27.617Z,38.30
2022-08-09T10:20:32.916Z,38.41
2022-08-09T10:21:28.590Z,38.57
2022-08-09T10:22:29.608Z,38.79
2022-08-09T10:23:28.179Z,39.04
2022-08-09T10:24:36.174Z,39.28
2022-08-09T10:25:34.827Z,39.58
2022-08-09T10:26:29.818Z,39.90
2022-08-09T10:27:34.514Z,40.15
2022-08-09T10:28:28.638Z,40.35
2022-08-09T10:30:11.698Z,40.58
2022-08-09T10:32:40.222Z,41.38
2022-08-09T10:34:04.917Z,41.80
2022-08-09T10:34:33.995Z,42.16
2022-08-09T10:35:27.761Z,42.45
2022-08-09T10:36:26.755Z,42.75
2022-08-09T10:37:27.331Z,42.95
2022-08-09T10:38:43.273Z,43.03
2022-08-09T10:39:28.917Z,43.06
2022-08-09T10:40:34.969Z,43.08
2022-08-09T10:41:29.627Z,43.12
2022-08-09T10:42:27.366Z,43.10
2022-08-09T10:43:26.728Z,43.03
2022-08-09T10:44:27.690Z,42.87
2022-08-09T10:45:31.886Z,42.66
2022-08-09T10:46:27.732Z,42.38
2022-08-09T10:48:13.364Z,41.89
2022-08-09T10:48:30.518Z,41.06
2022-08-09T10:49:49.889Z,39.82
2022-08-09T10:50:31.419Z,38.36
2022-08-09T10:51:29.490Z,36.82
2022-08-09T10:52:27.263Z,35.38
2022-08-09T10:53:26.576Z,34.18
2022-08-09T10:54:28.516Z,33.25
2022-08-09T10:55:27.550Z,32.51
2022-08-09T10:56:26.542Z,31.86
2022-08-09T10:57:27.215Z,31.38
2022-08-09T10:58:27.196Z,30.95
2022-08-09T10:59:30.958Z,30.60
2022-08-09T11:00:28.394Z,30.34
2022-08-09T11:03:11.547Z,30.13
2022-08-09T11:03:27.133Z,29.92
2022-08-09T11:03:50.546Z,29.76
2022-08-09T11:04:30.245Z,29.60
2022-08-09T11:05:30.130Z,29.41
2022-08-09T11:06:26.456Z,29.24
2022-08-09T11:07:27.509Z,29.12
2022-08-09T11:08:30.037Z,29.01
2022-08-09T11:09:26.397Z,28.92
2022-08-09T11:10:27.389Z,28.82
2022-08-09T11:11:27.068Z,28.73
2022-08-09T11:12:29.857Z,28.65
2022-08-09T11:13:50.219Z,28.60
2022-08-09T11:14:29.045Z,28.57
2022-08-09T11:15:33.609Z,28.55
2022-08-09T11:16:35.009Z,28.50
2022-08-09T11:17:27.480Z,28.41
2022-08-09T11:18:26.990Z,28.34
2022-08-09T11:20:10.638Z,28.26
2022-08-09T11:20:28.218Z,28.20
2022-08-09T11:21:26.263Z,28.15
2022-08-09T11:22:27.992Z,28.12
2022-08-09T11:23:30.098Z,28.09
2022-08-09T11:24:26.926Z,28.05
2022-08-09T11:25:36.019Z,27.99
2022-08-09T11:26:27.215Z,27.95
2022-08-09T11:28:04.461Z,27.92
2022-08-09T11:28:30.768Z,27.92
2022-08-09T11:30:05.251Z,27.93
2022-08-09T11:30:33.448Z,27.93
2022-08-09T11:31:33.921Z,27.92
2022-08-09T11:32:27.146Z,27.91
2022-08-09T11:33:28.095Z,27.92
2022-08-09T11:34:26.820Z,27.92
2022-08-09T11:35:26.822Z,27.95
2022-08-09T11:36:30.441Z,27.98
2022-08-09T11:37:31.349Z,28.00
2022-08-09T11:38:33.229Z,28.02
2022-08-09T11:39:33.458Z,28.06
2022-08-09T11:40:27.979Z,28.08
2022-08-09T11:41:26.750Z,28.09
2022-08-09T11:42:27.052Z,28.11
2022-08-09T11:43:26.047Z,28.14
2022-08-09T11:44:27.012Z,28.17
2022-08-09T11:45:42.646Z,28.19
2022-08-09T11:46:33.503Z,28.21
2022-08-09T11:47:27.688Z,28.20
2022-08-09T11:48:27.237Z,28.22
2022-08-09T11:49:28.127Z,28.22
2022-08-09T11:50:55.697Z,28.20
2022-08-09T11:52:57.049Z,28.17
2022-08-09T11:53:16.613Z,28.16
2022-08-09T11:54:00.008Z,28.14
2022-08-09T11:54:29.839Z,28.13
2022-08-09T11:55:35.167Z,28.12
2022-08-09T11:56:42.674Z,28.13
2022-08-09T11:57:47.001Z,28.16
2022-08-09T11:58:30.296Z,28.16
2022-08-09T11:59:30.213Z,28.17
2022-08-09T12:00:27.572Z,28.17
2022-08-09T12:02:00.724Z,28.19
2022-08-09T12:02:37.319Z,28.22
2022-08-09T12:03:56.114Z,28.23
2022-08-09T12:04:28.741Z,28.21
2022-08-09T12:05:27.534Z,28.19
2022-08-09T12:06:32.842Z,28.19
2022-08-09T12:07:28.196Z,28.20
2022-08-09T12:08:27.449Z,28.21
2022-08-09T12:09:26.451Z,28.23
2022-08-09T12:10:39.239Z,28.22
2022-08-09T12:11:26.742Z,28.20
2022-08-09T12:12:28.743Z,28.17
2022-08-09T12:14:10.047Z,28.16
2022-08-09T12:14:36.845Z,28.15
2022-08-09T12:15:49.712Z,28.13
2022-08-09T12:16:37.195Z,28.14
2022-08-09T12:17:27.822Z,28.15
2022-08-09T12:18:29.973Z,28.17
2022-08-09T12:19:26.345Z,28.21
2022-08-09T12:20:25.966Z,28.22
2022-08-09T12:21:28.514Z,28.25
2022-08-09T12:22:29.094Z,28.27
2022-08-09T12:23:56.513Z,28.31
2022-08-09T12:24:26.605Z,28.36
2022-08-09T12:25:31.858Z,28.39
2022-08-09T12:26:27.616Z,28.42
2022-08-09T12:28:59.206Z,28.45
2022-08-09T12:29:11.817Z,28.44
2022-08-09T12:29:43.744Z,28.48
2022-08-09T12:30:36.947Z,28.49
2022-08-09T12:31:30.918Z,28.50
2022-08-09T12:32:28.469Z,28.49
2022-08-09T12:33:35.296Z,28.48
2022-08-09T12:34:27.176Z,28.46
2022-08-09T12:35:26.181Z,28.44
2022-08-09T12:36:31.254Z,28.43
2022-08-09T12:37:29.157Z,28.41
2022-08-09T12:38:29.527Z,28.40
2022-08-09T12:39:26.471Z,28.38
2022-08-09T12:40:26.139Z,28.39
2022-08-09T12:41:26.110Z,28.41
2022-08-09T12:42:26.099Z,28.43
2022-08-09T12:44:05.783Z,28.47
2022-08-09T12:44:28.025Z,28.53
2022-08-09T12:45:34.380Z,28.60
2022-08-09T12:46:27.057Z,28.64
2022-08-09T12:47:26.042Z,28.66
2022-08-09T12:48:33.731Z,28.67
2022-08-09T12:49:27.015Z,28.66
2022-08-09T12:50:25.496Z,28.64
2022-08-09T12:51:52.795Z,28.62
2022-08-09T12:52:42.723Z,28.61
2022-08-09T12:53:32.161Z,28.62
2022-08-09T12:54:26.966Z,28.61